sensor_id;sensor_type;location;lat;lon;timestamp;P1;durP1;ratioP1;P2;durP2;ratioP2
26578;SDS011;14227;47.674;19.320;2023-08-08T00:01:17;4.63;;;1.27;;
26578;SDS011;14227;47.674;19.320;2023-08-08T00:03:43;3.30;;;1.58;;
26578;SDS011;14227;47.674;19.320;2023-08-08T00:06:09;2.50;;;1.90;;
26578;SDS011;14227;47.674;19.320;2023-08-08T00:08:34;2.60;;;1.45;;
26578;SDS011;14227;47.674;19.320;2023-08-08T00:11:01;2.42;;;1.63;;
26578;SDS011;14227;47.674;19.320;2023-08-08T00:13:26;1.60;;;1.50;;
26578;SDS011;14227;47.674;19.320;2023-08-08T00:15:52;2.10;;;1.50;;
26578;SDS011;14227;47.674;19.320;2023-08-08T00:18:18;2.33;;;1.38;;
26578;SDS011;14227;47.674;19.320;2023-08-08T00:20:43;6.57;;;1.90;;
26578;SDS011;14227;47.674;19.320;2023-08-08T00:23:09;1.30;;;1.20;;
26578;SDS011;14227;47.674;19.320;2023-08-08T00:25:35;1.92;;;1.45;;
26578;SDS011;14227;47.674;19.320;2023-08-08T00:28:01;4.03;;;1.20;;
26578;SDS011;14227;47.674;19.320;2023-08-08T00:30:27;5.35;;;1.38;;
26578;SDS011;14227;47.674;19.320;2023-08-08T00:32:52;1.75;;;1.30;;
26578;SDS011;14227;47.674;19.320;2023-08-08T00:35:18;4.07;;;1.30;;
26578;SDS011;14227;47.674;19.320;2023-08-08T00:37:44;1.40;;;1.17;;
26578;SDS011;14227;47.674;19.320;2023-08-08T00:40:09;6.97;;;1.60;;
26578;SDS011;14227;47.674;19.320;2023-08-08T00:42:35;1.70;;;1.50;;
26578;SDS011;14227;47.674;19.320;2023-08-08T00:45:01;2.60;;;1.60;;
26578;SDS011;14227;47.674;19.320;2023-08-08T00:47:29;1.30;;;1.15;;
26578;SDS011;14227;47.674;19.320;2023-08-08T00:49:57;2.25;;;1.40;;
26578;SDS011;14227;47.674;19.320;2023-08-08T00:52:24;3.45;;;1.30;;
26578;SDS011;14227;47.674;19.320;2023-08-08T00:54:50;1.70;;;1.33;;
26578;SDS011;14227;47.674;19.320;2023-08-08T00:57:17;5.78;;;1.10;;
26578;SDS011;14227;47.674;19.320;2023-08-08T00:59:43;1.55;;;1.27;;
26578;SDS011;14227;47.674;19.320;2023-08-08T01:02:08;1.42;;;1.10;;
26578;SDS011;14227;47.674;19.320;2023-08-08T01:04:34;4.32;;;1.45;;
26578;SDS011;14227;47.674;19.320;2023-08-08T01:09:36;1.35;;;1.20;;
26578;SDS011;14227;47.674;19.320;2023-08-08T01:12:07;1.20;;;1.10;;
26578;SDS011;14227;47.674;19.320;2023-08-08T01:14:36;3.00;;;1.58;;
26578;SDS011;14227;47.674;19.320;2023-08-08T01:17:03;3.28;;;1.40;;
26578;SDS011;14227;47.674;19.320;2023-08-08T01:19:31;2.15;;;1.02;;
26578;SDS011;14227;47.674;19.320;2023-08-08T01:22:04;3.80;;;1.27;;
26578;SDS011;14227;47.674;19.320;2023-08-08T01:24:32;1.15;;;1.05;;
26578;SDS011;14227;47.674;19.320;2023-08-08T01:27:02;2.28;;;1.20;;
26578;SDS011;14227;47.674;19.320;2023-08-08T01:29:29;5.38;;;1.10;;
26578;SDS011;14227;47.674;19.320;2023-08-08T01:31:55;3.50;;;1.17;;
26578;SDS011;14227;47.674;19.320;2023-08-08T01:34:21;2.45;;;0.80;;
26578;SDS011;14227;47.674;19.320;2023-08-08T01:39:31;2.45;;;1.13;;
26578;SDS011;14227;47.674;19.320;2023-08-08T01:41:58;2.35;;;1.20;;
26578;SDS011;14227;47.674;19.320;2023-08-08T01:44:25;1.30;;;1.10;;
26578;SDS011;14227;47.674;19.320;2023-08-08T01:46:52;2.40;;;1.00;;
26578;SDS011;14227;47.674;19.320;2023-08-08T01:49:18;2.28;;;1.15;;
26578;SDS011;14227;47.674;19.320;2023-08-08T01:51:44;3.13;;;1.42;;
26578;SDS011;14227;47.674;19.320;2023-08-08T01:54:10;4.22;;;1.45;;
26578;SDS011;14227;47.674;19.320;2023-08-08T01:56:36;2.28;;;1.20;;
26578;SDS011;14227;47.674;19.320;2023-08-08T01:59:02;9.68;;;1.20;;
26578;SDS011;14227;47.674;19.320;2023-08-08T02:01:27;2.97;;;1.23;;
26578;SDS011;14227;47.674;19.320;2023-08-08T02:03:53;2.05;;;1.45;;
26578;SDS011;14227;47.674;19.320;2023-08-08T02:06:19;5.15;;;1.33;;
26578;SDS011;14227;47.674;19.320;2023-08-08T02:08:45;1.77;;;1.35;;
26578;SDS011;14227;47.674;19.320;2023-08-08T02:11:11;1.52;;;1.02;;
26578;SDS011;14227;47.674;19.320;2023-08-08T02:13:36;4.28;;;1.30;;
26578;SDS011;14227;47.674;19.320;2023-08-08T02:16:02;1.20;;;1.10;;
26578;SDS011;14227;47.674;19.320;2023-08-08T02:18:28;3.22;;;1.38;;
26578;SDS011;14227;47.674;19.320;2023-08-08T02:20:54;1.38;;;1.27;;
26578;SDS011;14227;47.674;19.320;2023-08-08T02:23:20;1.85;;;1.20;;
26578;SDS011;14227;47.674;19.320;2023-08-08T02:25:46;3.00;;;1.30;;
26578;SDS011;14227;47.674;19.320;2023-08-08T02:28:11;3.10;;;1.90;;
26578;SDS011;14227;47.674;19.320;2023-08-08T02:30:37;2.95;;;1.30;;
26578;SDS011;14227;47.674;19.320;2023-08-08T02:33:03;1.55;;;1.40;;
26578;SDS011;14227;47.674;19.320;2023-08-08T02:35:29;3.10;;;1.38;;
26578;SDS011;14227;47.674;19.320;2023-08-08T02:37:55;2.80;;;1.23;;
26578;SDS011;14227;47.674;19.320;2023-08-08T02:40:21;2.42;;;1.42;;
26578;SDS011;14227;47.674;19.320;2023-08-08T02:42:54;3.42;;;1.50;;
26578;SDS011;14227;47.674;19.320;2023-08-08T02:45:20;2.90;;;1.55;;
26578;SDS011;14227;47.674;19.320;2023-08-08T02:47:46;2.80;;;1.60;;
26578;SDS011;14227;47.674;19.320;2023-08-08T02:50:11;4.18;;;1.50;;
26578;SDS011;14227;47.674;19.320;2023-08-08T02:52:37;2.63;;;1.60;;
26578;SDS011;14227;47.674;19.320;2023-08-08T02:55:03;2.90;;;1.80;;
26578;SDS011;14227;47.674;19.320;2023-08-08T02:57:29;1.77;;;1.65;;
26578;SDS011;14227;47.674;19.320;2023-08-08T02:59:55;2.55;;;1.60;;
26578;SDS011;14227;47.674;19.320;2023-08-08T03:02:20;2.88;;;2.03;;
26578;SDS011;14227;47.674;19.320;2023-08-08T03:04:46;2.33;;;1.70;;
26578;SDS011;14227;47.674;19.320;2023-08-08T03:07:12;3.55;;;2.10;;
26578;SDS011;14227;47.674;19.320;2023-08-08T03:09:37;3.28;;;2.45;;
26578;SDS011;14227;47.674;19.320;2023-08-08T03:12:03;2.65;;;2.22;;
26578;SDS011;14227;47.674;19.320;2023-08-08T03:14:29;3.63;;;2.35;;
26578;SDS011;14227;47.674;19.320;2023-08-08T03:16:55;3.67;;;2.10;;
26578;SDS011;14227;47.674;19.320;2023-08-08T03:19:21;6.90;;;2.15;;
26578;SDS011;14227;47.674;19.320;2023-08-08T03:21:47;5.40;;;2.00;;
26578;SDS011;14227;47.674;19.320;2023-08-08T03:24:13;7.00;;;2.13;;
26578;SDS011;14227;47.674;19.320;2023-08-08T03:26:38;3.03;;;2.22;;
26578;SDS011;14227;47.674;19.320;2023-08-08T03:29:04;6.57;;;2.10;;
26578;SDS011;14227;47.674;19.320;2023-08-08T03:31:38;4.78;;;2.50;;
26578;SDS011;14227;47.674;19.320;2023-08-08T03:34:04;4.80;;;2.00;;
26578;SDS011;14227;47.674;19.320;2023-08-08T03:39:45;3.30;;;2.33;;
26578;SDS011;14227;47.674;19.320;2023-08-08T03:42:11;5.72;;;2.17;;
26578;SDS011;14227;47.674;19.320;2023-08-08T03:44:36;3.20;;;2.40;;
26578;SDS011;14227;47.674;19.320;2023-08-08T03:47:02;4.80;;;2.60;;
26578;SDS011;14227;47.674;19.320;2023-08-08T03:49:28;3.42;;;2.45;;
26578;SDS011;14227;47.674;19.320;2023-08-08T03:51:54;7.10;;;3.05;;
26578;SDS011;14227;47.674;19.320;2023-08-08T03:54:19;7.80;;;2.90;;
26578;SDS011;14227;47.674;19.320;2023-08-08T03:56:45;3.70;;;2.80;;
26578;SDS011;14227;47.674;19.320;2023-08-08T03:59:10;5.20;;;2.70;;
26578;SDS011;14227;47.674;19.320;2023-08-08T04:01:36;5.15;;;2.65;;
26578;SDS011;14227;47.674;19.320;2023-08-08T04:04:03;4.40;;;2.60;;
26578;SDS011;14227;47.674;19.320;2023-08-08T04:06:29;3.97;;;2.42;;
26578;SDS011;14227;47.674;19.320;2023-08-08T04:08:55;3.38;;;2.90;;
26578;SDS011;14227;47.674;19.320;2023-08-08T04:11:20;6.47;;;2.92;;
26578;SDS011;14227;47.674;19.320;2023-08-08T04:13:46;8.13;;;2.95;;
26578;SDS011;14227;47.674;19.320;2023-08-08T04:16:12;5.95;;;2.10;;
26578;SDS011;14227;47.674;19.320;2023-08-08T04:18:37;5.85;;;2.60;;
26578;SDS011;14227;47.674;19.320;2023-08-08T04:21:03;3.33;;;2.25;;
26578;SDS011;14227;47.674;19.320;2023-08-08T04:23:29;3.50;;;2.50;;
26578;SDS011;14227;47.674;19.320;2023-08-08T04:25:54;4.80;;;2.40;;
26578;SDS011;14227;47.674;19.320;2023-08-08T04:28:20;5.57;;;2.60;;
26578;SDS011;14227;47.674;19.320;2023-08-08T04:30:46;9.38;;;2.40;;
26578;SDS011;14227;47.674;19.320;2023-08-08T04:33:11;4.47;;;2.35;;
26578;SDS011;14227;47.674;19.320;2023-08-08T04:35:37;4.78;;;2.22;;
26578;SDS011;14227;47.674;19.320;2023-08-08T04:38:03;6.20;;;3.03;;
26578;SDS011;14227;47.674;19.320;2023-08-08T04:40:29;7.85;;;2.70;;
26578;SDS011;14227;47.674;19.320;2023-08-08T04:42:54;7.32;;;2.55;;
26578;SDS011;14227;47.674;19.320;2023-08-08T04:45:20;3.17;;;2.42;;
26578;SDS011;14227;47.674;19.320;2023-08-08T04:47:46;5.35;;;3.17;;
26578;SDS011;14227;47.674;19.320;2023-08-08T04:50:12;4.85;;;2.70;;
26578;SDS011;14227;47.674;19.320;2023-08-08T04:52:38;4.05;;;2.63;;
26578;SDS011;14227;47.674;19.320;2023-08-08T04:55:03;4.57;;;2.20;;
26578;SDS011;14227;47.674;19.320;2023-08-08T04:57:30;4.78;;;2.53;;
26578;SDS011;14227;47.674;19.320;2023-08-08T04:59:56;7.43;;;2.42;;
26578;SDS011;14227;47.674;19.320;2023-08-08T05:02:22;4.15;;;2.75;;
26578;SDS011;14227;47.674;19.320;2023-08-08T05:04:47;7.20;;;2.78;;
26578;SDS011;14227;47.674;19.320;2023-08-08T05:07:13;7.10;;;2.58;;
26578;SDS011;14227;47.674;19.320;2023-08-08T05:09:39;2.80;;;2.40;;
26578;SDS011;14227;47.674;19.320;2023-08-08T05:12:05;4.32;;;2.38;;
26578;SDS011;14227;47.674;19.320;2023-08-08T05:14:31;3.28;;;2.10;;
26578;SDS011;14227;47.674;19.320;2023-08-08T05:16:57;4.47;;;1.95;;
26578;SDS011;14227;47.674;19.320;2023-08-08T05:19:22;3.58;;;2.60;;
26578;SDS011;14227;47.674;19.320;2023-08-08T05:21:50;6.40;;;2.10;;
26578;SDS011;14227;47.674;19.320;2023-08-08T05:24:15;7.38;;;2.40;;
26578;SDS011;14227;47.674;19.320;2023-08-08T05:26:41;5.50;;;2.38;;
26578;SDS011;14227;47.674;19.320;2023-08-08T05:29:07;4.47;;;2.63;;
26578;SDS011;14227;47.674;19.320;2023-08-08T05:31:32;2.67;;;1.92;;
26578;SDS011;14227;47.674;19.320;2023-08-08T05:33:58;6.70;;;2.70;;
26578;SDS011;14227;47.674;19.320;2023-08-08T05:36:24;5.07;;;2.30;;
26578;SDS011;14227;47.674;19.320;2023-08-08T05:38:49;4.03;;;2.00;;
26578;SDS011;14227;47.674;19.320;2023-08-08T05:41:15;4.82;;;2.67;;
26578;SDS011;14227;47.674;19.320;2023-08-08T05:43:41;5.38;;;2.53;;
26578;SDS011;14227;47.674;19.320;2023-08-08T05:46:07;4.93;;;2.38;;
26578;SDS011;14227;47.674;19.320;2023-08-08T05:48:33;6.15;;;2.28;;
26578;SDS011;14227;47.674;19.320;2023-08-08T05:50:58;5.28;;;1.77;;
26578;SDS011;14227;47.674;19.320;2023-08-08T05:53:24;3.22;;;1.73;;
26578;SDS011;14227;47.674;19.320;2023-08-08T05:55:50;3.20;;;1.88;;
26578;SDS011;14227;47.674;19.320;2023-08-08T05:58:16;3.25;;;1.80;;
26578;SDS011;14227;47.674;19.320;2023-08-08T06:00:41;3.85;;;2.00;;
26578;SDS011;14227;47.674;19.320;2023-08-08T06:03:07;3.42;;;1.50;;
26578;SDS011;14227;47.674;19.320;2023-08-08T06:05:33;3.33;;;1.67;;
26578;SDS011;14227;47.674;19.320;2023-08-08T06:07:59;4.80;;;1.23;;
26578;SDS011;14227;47.674;19.320;2023-08-08T06:10:25;8.02;;;1.75;;
26578;SDS011;14227;47.674;19.320;2023-08-08T06:12:51;2.90;;;1.30;;
26578;SDS011;14227;47.674;19.320;2023-08-08T06:15:17;5.97;;;1.50;;
26578;SDS011;14227;47.674;19.320;2023-08-08T06:17:42;2.55;;;1.50;;
26578;SDS011;14227;47.674;19.320;2023-08-08T06:20:08;2.92;;;1.60;;
26578;SDS011;14227;47.674;19.320;2023-08-08T06:22:34;4.88;;;1.55;;
26578;SDS011;14227;47.674;19.320;2023-08-08T06:25:00;3.35;;;1.60;;
26578;SDS011;14227;47.674;19.320;2023-08-08T06:27:26;3.95;;;1.30;;
26578;SDS011;14227;47.674;19.320;2023-08-08T06:29:51;1.98;;;1.15;;
26578;SDS011;14227;47.674;19.320;2023-08-08T06:32:17;7.05;;;1.77;;
26578;SDS011;14227;47.674;19.320;2023-08-08T06:34:43;4.35;;;1.33;;
26578;SDS011;14227;47.674;19.320;2023-08-08T06:37:09;5.03;;;1.38;;
26578;SDS011;14227;47.674;19.320;2023-08-08T06:39:34;3.75;;;1.38;;
26578;SDS011;14227;47.674;19.320;2023-08-08T06:42:03;3.83;;;1.30;;
26578;SDS011;14227;47.674;19.320;2023-08-08T06:44:28;3.65;;;1.73;;
26578;SDS011;14227;47.674;19.320;2023-08-08T06:46:57;5.65;;;1.33;;
26578;SDS011;14227;47.674;19.320;2023-08-08T06:49:23;2.38;;;1.17;;
26578;SDS011;14227;47.674;19.320;2023-08-08T06:51:49;1.52;;;1.20;;
26578;SDS011;14227;47.674;19.320;2023-08-08T06:54:14;3.10;;;1.35;;
26578;SDS011;14227;47.674;19.320;2023-08-08T06:56:40;1.90;;;1.20;;
26578;SDS011;14227;47.674;19.320;2023-08-08T06:59:06;3.67;;;1.33;;
26578;SDS011;14227;47.674;19.320;2023-08-08T07:01:32;3.65;;;1.60;;
26578;SDS011;14227;47.674;19.320;2023-08-08T07:03:58;5.43;;;1.35;;
26578;SDS011;14227;47.674;19.320;2023-08-08T07:06:24;3.92;;;1.50;;
26578;SDS011;14227;47.674;19.320;2023-08-08T07:08:50;16.70;;;1.35;;
26578;SDS011;14227;47.674;19.320;2023-08-08T07:11:16;6.90;;;1.20;;
26578;SDS011;14227;47.674;19.320;2023-08-08T07:13:41;3.67;;;1.23;;
26578;SDS011;14227;47.674;19.320;2023-08-08T07:16:07;4.00;;;1.30;;
26578;SDS011;14227;47.674;19.320;2023-08-08T07:18:33;2.00;;;1.30;;
26578;SDS011;14227;47.674;19.320;2023-08-08T07:20:58;2.33;;;1.40;;
26578;SDS011;14227;47.674;19.320;2023-08-08T07:23:24;6.28;;;1.50;;
26578;SDS011;14227;47.674;19.320;2023-08-08T07:25:50;4.03;;;1.48;;
26578;SDS011;14227;47.674;19.320;2023-08-08T07:28:17;6.38;;;1.50;;
26578;SDS011;14227;47.674;19.320;2023-08-08T07:30:43;3.72;;;1.60;;
26578;SDS011;14227;47.674;19.320;2023-08-08T07:33:10;2.00;;;1.35;;
26578;SDS011;14227;47.674;19.320;2023-08-08T07:35:36;2.70;;;1.10;;
26578;SDS011;14227;47.674;19.320;2023-08-08T07:38:02;3.38;;;1.40;;
26578;SDS011;14227;47.674;19.320;2023-08-08T07:40:28;2.38;;;1.45;;
26578;SDS011;14227;47.674;19.320;2023-08-08T07:42:56;3.83;;;1.52;;
26578;SDS011;14227;47.674;19.320;2023-08-08T07:45:22;6.72;;;1.60;;
26578;SDS011;14227;47.674;19.320;2023-08-08T07:47:47;3.90;;;1.40;;
26578;SDS011;14227;47.674;19.320;2023-08-08T07:50:15;4.00;;;1.50;;
26578;SDS011;14227;47.674;19.320;2023-08-08T07:52:41;4.95;;;1.70;;
26578;SDS011;14227;47.674;19.320;2023-08-08T07:55:07;4.53;;;1.17;;
26578;SDS011;14227;47.674;19.320;2023-08-08T07:57:33;6.32;;;1.50;;
26578;SDS011;14227;47.674;19.320;2023-08-08T08:00:00;3.53;;;1.15;;
26578;SDS011;14227;47.674;19.320;2023-08-08T08:02:32;4.95;;;1.85;;
26578;SDS011;14227;47.674;19.320;2023-08-08T08:04:58;5.85;;;1.30;;
26578;SDS011;14227;47.674;19.320;2023-08-08T08:07:30;2.60;;;1.35;;
26578;SDS011;14227;47.674;19.320;2023-08-08T08:09:57;6.22;;;1.50;;
26578;SDS011;14227;47.674;19.320;2023-08-08T08:12:22;4.43;;;1.40;;
26578;SDS011;14227;47.674;19.320;2023-08-08T08:14:48;4.43;;;1.50;;
26578;SDS011;14227;47.674;19.320;2023-08-08T08:17:14;4.35;;;1.60;;
26578;SDS011;14227;47.674;19.320;2023-08-08T08:19:39;3.17;;;1.23;;
26578;SDS011;14227;47.674;19.320;2023-08-08T08:22:05;7.53;;;1.70;;
26578;SDS011;14227;47.674;19.320;2023-08-08T08:24:31;3.45;;;1.58;;
26578;SDS011;14227;47.674;19.320;2023-08-08T08:26:57;2.17;;;1.40;;
26578;SDS011;14227;47.674;19.320;2023-08-08T08:29:25;4.63;;;1.60;;
26578;SDS011;14227;47.674;19.320;2023-08-08T08:31:51;4.43;;;1.55;;
26578;SDS011;14227;47.674;19.320;2023-08-08T08:34:17;3.08;;;1.30;;
26578;SDS011;14227;47.674;19.320;2023-08-08T08:36:43;2.97;;;1.33;;
26578;SDS011;14227;47.674;19.320;2023-08-08T08:39:11;5.85;;;1.55;;
26578;SDS011;14227;47.674;19.320;2023-08-08T08:41:37;2.95;;;1.20;;
26578;SDS011;14227;47.674;19.320;2023-08-08T08:44:03;4.53;;;1.40;;
26578;SDS011;14227;47.674;19.320;2023-08-08T08:46:32;5.97;;;1.50;;
26578;SDS011;14227;47.674;19.320;2023-08-08T08:49:02;6.78;;;1.88;;
26578;SDS011;14227;47.674;19.320;2023-08-08T08:51:33;3.53;;;1.20;;
26578;SDS011;14227;47.674;19.320;2023-08-08T08:54:00;6.15;;;1.67;;
26578;SDS011;14227;47.674;19.320;2023-08-08T08:56:29;1.60;;;0.90;;
26578;SDS011;14227;47.674;19.320;2023-08-08T08:58:55;7.80;;;1.48;;
26578;SDS011;14227;47.674;19.320;2023-08-08T09:01:21;3.88;;;1.40;;
26578;SDS011;14227;47.674;19.320;2023-08-08T09:03:48;2.83;;;1.42;;
26578;SDS011;14227;47.674;19.320;2023-08-08T09:06:15;4.03;;;1.48;;
26578;SDS011;14227;47.674;19.320;2023-08-08T09:08:41;5.82;;;1.75;;
26578;SDS011;14227;47.674;19.320;2023-08-08T09:11:07;4.50;;;1.40;;
26578;SDS011;14227;47.674;19.320;2023-08-08T09:13:37;3.63;;;1.52;;
26578;SDS011;14227;47.674;19.320;2023-08-08T09:16:04;7.80;;;1.50;;
26578;SDS011;14227;47.674;19.320;2023-08-08T09:18:31;6.80;;;1.33;;
26578;SDS011;14227;47.674;19.320;2023-08-08T09:20:57;6.70;;;1.55;;
26578;SDS011;14227;47.674;19.320;2023-08-08T09:23:26;3.08;;;1.20;;
26578;SDS011;14227;47.674;19.320;2023-08-08T09:25:51;5.78;;;1.52;;
26578;SDS011;14227;47.674;19.320;2023-08-08T09:28:20;4.55;;;1.38;;
26578;SDS011;14227;47.674;19.320;2023-08-08T09:30:46;3.70;;;1.52;;
26578;SDS011;14227;47.674;19.320;2023-08-08T09:33:14;3.90;;;1.50;;
26578;SDS011;14227;47.674;19.320;2023-08-08T09:35:42;5.22;;;1.30;;
26578;SDS011;14227;47.674;19.320;2023-08-08T09:38:08;5.90;;;1.88;;
26578;SDS011;14227;47.674;19.320;2023-08-08T09:40:34;1.98;;;1.20;;
26578;SDS011;14227;47.674;19.320;2023-08-08T09:43:00;4.00;;;1.48;;
26578;SDS011;14227;47.674;19.320;2023-08-08T09:45:26;4.35;;;1.60;;
26578;SDS011;14227;47.674;19.320;2023-08-08T09:47:51;3.08;;;1.40;;
26578;SDS011;14227;47.674;19.320;2023-08-08T09:50:18;3.58;;;1.60;;
26578;SDS011;14227;47.674;19.320;2023-08-08T09:52:45;4.28;;;1.20;;
26578;SDS011;14227;47.674;19.320;2023-08-08T09:55:12;5.35;;;1.50;;
26578;SDS011;14227;47.674;19.320;2023-08-08T09:57:41;7.13;;;1.70;;
26578;SDS011;14227;47.674;19.320;2023-08-08T10:00:08;7.47;;;1.83;;
26578;SDS011;14227;47.674;19.320;2023-08-08T10:05:10;3.53;;;1.38;;
26578;SDS011;14227;47.674;19.320;2023-08-08T10:07:39;4.15;;;1.33;;
26578;SDS011;14227;47.674;19.320;2023-08-08T10:10:08;2.55;;;1.35;;
26578;SDS011;14227;47.674;19.320;2023-08-08T10:12:38;2.90;;;1.60;;
26578;SDS011;14227;47.674;19.320;2023-08-08T10:15:08;1.58;;;1.10;;
26578;SDS011;14227;47.674;19.320;2023-08-08T10:17:38;1.77;;;1.20;;
26578;SDS011;14227;47.674;19.320;2023-08-08T10:20:05;3.13;;;1.45;;
26578;SDS011;14227;47.674;19.320;2023-08-08T10:22:37;5.60;;;1.67;;
26578;SDS011;14227;47.674;19.320;2023-08-08T10:25:07;6.05;;;1.35;;
26578;SDS011;14227;47.674;19.320;2023-08-08T10:27:34;6.07;;;1.30;;
26578;SDS011;14227;47.674;19.320;2023-08-08T10:30:05;3.00;;;1.20;;
26578;SDS011;14227;47.674;19.320;2023-08-08T10:32:41;3.95;;;1.20;;
26578;SDS011;14227;47.674;19.320;2023-08-08T10:35:08;2.35;;;1.27;;
26578;SDS011;14227;47.674;19.320;2023-08-08T10:37:36;5.10;;;1.50;;
26578;SDS011;14227;47.674;19.320;2023-08-08T10:40:02;3.45;;;1.35;;
26578;SDS011;14227;47.674;19.320;2023-08-08T10:42:33;3.35;;;1.10;;
26578;SDS011;14227;47.674;19.320;2023-08-08T10:45:09;3.97;;;1.30;;
26578;SDS011;14227;47.674;19.320;2023-08-08T10:47:37;5.07;;;1.20;;
26578;SDS011;14227;47.674;19.320;2023-08-08T10:50:03;4.63;;;1.30;;
26578;SDS011;14227;47.674;19.320;2023-08-08T10:55:23;3.67;;;1.30;;
26578;SDS011;14227;47.674;19.320;2023-08-08T10:58:12;3.45;;;1.38;;
26578;SDS011;14227;47.674;19.320;2023-08-08T11:00:40;3.88;;;1.50;;
26578;SDS011;14227;47.674;19.320;2023-08-08T11:03:06;3.35;;;1.55;;
26578;SDS011;14227;47.674;19.320;2023-08-08T11:05:34;3.75;;;1.42;;
26578;SDS011;14227;47.674;19.320;2023-08-08T11:08:02;4.47;;;1.27;;
26578;SDS011;14227;47.674;19.320;2023-08-08T11:10:29;4.20;;;1.50;;
26578;SDS011;14227;47.674;19.320;2023-08-08T11:13:04;1.98;;;1.30;;
26578;SDS011;14227;47.674;19.320;2023-08-08T11:15:35;2.28;;;1.38;;
26578;SDS011;14227;47.674;19.320;2023-08-08T11:18:02;1.58;;;1.10;;
26578;SDS011;14227;47.674;19.320;2023-08-08T11:20:32;1.50;;;1.20;;
26578;SDS011;14227;47.674;19.320;2023-08-08T11:22:59;4.22;;;1.40;;
26578;SDS011;14227;47.674;19.320;2023-08-08T11:25:25;4.22;;;1.23;;
26578;SDS011;14227;47.674;19.320;2023-08-08T11:27:53;2.92;;;1.15;;
26578;SDS011;14227;47.674;19.320;2023-08-08T11:30:20;2.85;;;1.15;;
26578;SDS011;14227;47.674;19.320;2023-08-08T11:32:47;2.20;;;1.02;;
26578;SDS011;14227;47.674;19.320;2023-08-08T11:35:17;3.15;;;1.10;;
26578;SDS011;14227;47.674;19.320;2023-08-08T11:40:14;2.95;;;1.30;;
26578;SDS011;14227;47.674;19.320;2023-08-08T11:42:42;3.15;;;1.15;;
26578;SDS011;14227;47.674;19.320;2023-08-08T11:45:10;3.08;;;1.20;;
26578;SDS011;14227;47.674;19.320;2023-08-08T11:47:39;1.70;;;1.00;;
26578;SDS011;14227;47.674;19.320;2023-08-08T11:50:06;4.22;;;1.20;;
26578;SDS011;14227;47.674;19.320;2023-08-08T11:52:39;2.38;;;1.15;;
26578;SDS011;14227;47.674;19.320;2023-08-08T11:55:06;3.10;;;1.40;;
26578;SDS011;14227;47.674;19.320;2023-08-08T11:57:33;8.00;;;1.35;;
26578;SDS011;14227;47.674;19.320;2023-08-08T12:00:03;2.72;;;1.50;;
26578;SDS011;14227;47.674;19.320;2023-08-08T12:02:33;1.73;;;1.27;;
26578;SDS011;14227;47.674;19.320;2023-08-08T12:05:06;1.77;;;1.20;;
26578;SDS011;14227;47.674;19.320;2023-08-08T12:07:34;1.65;;;1.20;;
26578;SDS011;14227;47.674;19.320;2023-08-08T12:10:00;1.30;;;1.10;;
26578;SDS011;14227;47.674;19.320;2023-08-08T12:12:28;2.75;;;1.33;;
26578;SDS011;14227;47.674;19.320;2023-08-08T12:14:56;2.58;;;1.35;;
26578;SDS011;14227;47.674;19.320;2023-08-08T12:17:21;3.30;;;1.08;;
26578;SDS011;14227;47.674;19.320;2023-08-08T12:19:47;4.10;;;1.00;;
26578;SDS011;14227;47.674;19.320;2023-08-08T12:22:14;1.80;;;1.00;;
26578;SDS011;14227;47.674;19.320;2023-08-08T12:24:40;3.25;;;1.13;;
26578;SDS011;14227;47.674;19.320;2023-08-08T12:27:06;2.10;;;1.13;;
26578;SDS011;14227;47.674;19.320;2023-08-08T12:29:31;5.57;;;1.30;;
26578;SDS011;14227;47.674;19.320;2023-08-08T12:31:57;2.08;;;1.00;;
26578;SDS011;14227;47.674;19.320;2023-08-08T12:34:23;2.63;;;1.15;;
26578;SDS011;14227;47.674;19.320;2023-08-08T12:36:48;1.73;;;1.13;;
26578;SDS011;14227;47.674;19.320;2023-08-08T12:39:14;5.55;;;1.30;;
26578;SDS011;14227;47.674;19.320;2023-08-08T12:41:40;2.20;;;1.30;;
26578;SDS011;14227;47.674;19.320;2023-08-08T12:44:05;3.53;;;1.15;;
26578;SDS011;14227;47.674;19.320;2023-08-08T12:46:33;3.13;;;1.20;;
26578;SDS011;14227;47.674;19.320;2023-08-08T12:48:59;3.33;;;1.52;;
26578;SDS011;14227;47.674;19.320;2023-08-08T12:51:24;2.75;;;1.42;;
26578;SDS011;14227;47.674;19.320;2023-08-08T12:53:50;9.52;;;1.67;;
26578;SDS011;14227;47.674;19.320;2023-08-08T12:56:16;1.20;;;1.10;;
26578;SDS011;14227;47.674;19.320;2023-08-08T12:58:42;2.85;;;1.30;;
26578;SDS011;14227;47.674;19.320;2023-08-08T13:01:08;5.57;;;1.40;;
26578;SDS011;14227;47.674;19.320;2023-08-08T13:03:33;2.42;;;1.17;;
26578;SDS011;14227;47.674;19.320;2023-08-08T13:05:59;3.75;;;1.40;;
26578;SDS011;14227;47.674;19.320;2023-08-08T13:08:25;2.80;;;1.10;;
26578;SDS011;14227;47.674;19.320;2023-08-08T13:10:51;2.50;;;1.63;;
26578;SDS011;14227;47.674;19.320;2023-08-08T13:13:17;1.98;;;1.25;;
26578;SDS011;14227;47.674;19.320;2023-08-08T13:15:44;3.38;;;1.25;;
26578;SDS011;14227;47.674;19.320;2023-08-08T13:18:11;1.48;;;1.38;;
26578;SDS011;14227;47.674;19.320;2023-08-08T13:20:36;4.50;;;1.23;;
26578;SDS011;14227;47.674;19.320;2023-08-08T13:23:02;2.33;;;1.30;;
26578;SDS011;14227;47.674;19.320;2023-08-08T13:25:29;7.00;;;1.45;;
26578;SDS011;14227;47.674;19.320;2023-08-08T13:27:56;2.72;;;1.35;;
26578;SDS011;14227;47.674;19.320;2023-08-08T13:30:22;3.30;;;1.48;;
26578;SDS011;14227;47.674;19.320;2023-08-08T13:32:47;3.72;;;1.30;;
26578;SDS011;14227;47.674;19.320;2023-08-08T13:35:13;2.53;;;1.40;;
26578;SDS011;14227;47.674;19.320;2023-08-08T13:37:39;2.85;;;1.40;;
26578;SDS011;14227;47.674;19.320;2023-08-08T13:40:05;3.03;;;1.88;;
26578;SDS011;14227;47.674;19.320;2023-08-08T13:42:31;3.90;;;1.33;;
26578;SDS011;14227;47.674;19.320;2023-08-08T13:44:57;2.95;;;1.52;;
26578;SDS011;14227;47.674;19.320;2023-08-08T13:47:22;2.55;;;1.77;;
26578;SDS011;14227;47.674;19.320;2023-08-08T13:49:48;5.60;;;1.88;;
26578;SDS011;14227;47.674;19.320;2023-08-08T13:52:14;5.40;;;1.80;;
26578;SDS011;14227;47.674;19.320;2023-08-08T13:54:39;7.93;;;2.00;;
26578;SDS011;14227;47.674;19.320;2023-08-08T13:57:05;3.25;;;1.70;;
26578;SDS011;14227;47.674;19.320;2023-08-08T13:59:31;4.05;;;1.48;;
26578;SDS011;14227;47.674;19.320;2023-08-08T14:01:57;4.20;;;1.67;;
26578;SDS011;14227;47.674;19.320;2023-08-08T14:04:23;3.35;;;1.50;;
26578;SDS011;14227;47.674;19.320;2023-08-08T14:06:48;4.63;;;1.73;;
26578;SDS011;14227;47.674;19.320;2023-08-08T14:09:14;5.97;;;1.83;;
26578;SDS011;14227;47.674;19.320;2023-08-08T14:11:40;3.15;;;1.35;;
26578;SDS011;14227;47.674;19.320;2023-08-08T14:14:05;8.70;;;2.13;;
26578;SDS011;14227;47.674;19.320;2023-08-08T14:16:31;5.70;;;1.55;;
26578;SDS011;14227;47.674;19.320;2023-08-08T14:18:57;2.88;;;1.63;;
26578;SDS011;14227;47.674;19.320;2023-08-08T14:21:23;6.75;;;1.38;;
26578;SDS011;14227;47.674;19.320;2023-08-08T14:23:49;5.07;;;2.13;;
26578;SDS011;14227;47.674;19.320;2023-08-08T14:26:15;5.53;;;2.45;;
26578;SDS011;14227;47.674;19.320;2023-08-08T14:28:41;3.97;;;2.53;;
26578;SDS011;14227;47.674;19.320;2023-08-08T14:31:07;3.80;;;1.90;;
26578;SDS011;14227;47.674;19.320;2023-08-08T14:33:34;7.53;;;3.05;;
26578;SDS011;14227;47.674;19.320;2023-08-08T14:35:59;5.75;;;1.80;;
26578;SDS011;14227;47.674;19.320;2023-08-08T14:38:25;6.13;;;2.75;;
26578;SDS011;14227;47.674;19.320;2023-08-08T14:40:51;9.52;;;3.83;;
26578;SDS011;14227;47.674;19.320;2023-08-08T14:43:21;7.15;;;5.07;;
26578;SDS011;14227;47.674;19.320;2023-08-08T14:45:48;6.07;;;2.65;;